sensor_id;sensor_type;location;lat;lon;timestamp;pressure;altitude;pressure_sealevel;temperature;humidity
32873;BME280;19224;52.462;16.898;2023-01-25T00:00:45;102455.89;;;2.43;100.00
32873;BME280;19224;52.462;16.898;2023-01-25T00:03:17;102454.48;;;2.39;100.00
32873;BME280;19224;52.462;16.898;2023-01-25T00:05:47;102461.15;;;2.40;100.00
32873;BME280;19224;52.462;16.898;2023-01-25T00:08:18;102459.41;;;2.42;100.00
32873;BME280;19224;52.462;16.898;2023-01-25T00:10:51;102457.63;;;2.41;100.00
32873;BME280;19224;52.462;16.898;2023-01-25T00:13:22;102456.59;;;2.35;100.00
32873;BME280;19224;52.462;16.898;2023-01-25T00:15:52;102467.67;;;2.34;100.00
32873;BME280;19224;52.462;16.898;2023-01-25T00:18:23;102468.14;;;2.35;100.00
32873;BME280;19224;52.462;16.898;2023-01-25T00:20:53;102464.61;;;2.36;100.00
32873;BME280;19224;52.462;16.898;2023-01-25T00:23:24;102466.19;;;2.28;100.00
32873;BME280;19224;52.462;16.898;2023-01-25T00:25:58;102467.56;;;2.30;100.00
32873;BME280;19224;52.462;16.898;2023-01-25T00:28:29;102470.75;;;2.34;100.00
32873;BME280;19224;52.462;16.898;2023-01-25T00:31:02;102461.95;;;2.36;100.00
32873;BME280;19224;52.462;16.898;2023-01-25T00:33:43;102470.28;;;2.33;100.00
32873;BME280;19224;52.462;16.898;2023-01-25T00:39:11;102463.36;;;2.21;100.00
32873;BME280;19224;52.462;16.898;2023-01-25T00:41:43;102461.63;;;2.23;100.00
32873;BME280;19224;52.462;16.898;2023-01-25T00:44:13;102464.23;;;2.22;100.00
32873;BME280;19224;52.462;16.898;2023-01-25T00:46:44;102471.73;;;2.19;100.00
32873;BME280;19224;52.462;16.898;2023-01-25T00:49:26;102469.14;;;2.04;100.00
32873;BME280;19224;52.462;16.898;2023-01-25T00:51:58;102461.68;;;2.06;100.00
32873;BME280;19224;52.462;16.898;2023-01-25T00:54:29;102464.64;;;2.01;100.00
32873;BME280;19224;52.462;16.898;2023-01-25T00:57:00;102466.14;;;2.09;100.00
32873;BME280;19224;52.462;16.898;2023-01-25T00:59:30;102455.05;;;2.08;100.00
32873;BME280;19224;52.462;16.898;2023-01-25T01:02:02;102460.53;;;2.14;100.00
32873;BME280;19224;52.462;16.898;2023-01-25T01:04:33;102457.36;;;2.11;100.00
32873;BME280;19224;52.462;16.898;2023-01-25T01:07:04;102465.97;;;2.20;100.00
32873;BME280;19224;52.462;16.898;2023-01-25T01:09:34;102460.66;;;2.20;100.00
32873;BME280;19224;52.462;16.898;2023-01-25T01:12:05;102459.20;;;2.14;100.00
32873;BME280;19224;52.462;16.898;2023-01-25T01:14:36;102456.66;;;2.20;100.00
32873;BME280;19224;52.462;16.898;2023-01-25T01:17:06;102457.13;;;2.21;100.00
32873;BME280;19224;52.462;16.898;2023-01-25T01:19:37;102452.33;;;2.05;100.00
32873;BME280;19224;52.462;16.898;2023-01-25T01:22:08;102457.69;;;2.06;100.00
32873;BME280;19224;52.462;16.898;2023-01-25T01:24:38;102461.93;;;2.00;100.00
32873;BME280;19224;52.462;16.898;2023-01-25T01:27:10;102459.20;;;1.97;100.00
32873;BME280;19224;52.462;16.898;2023-01-25T01:29:40;102459.89;;;1.88;100.00
32873;BME280;19224;52.462;16.898;2023-01-25T01:32:11;102456.02;;;1.76;100.00
32873;BME280;19224;52.462;16.898;2023-01-25T01:34:41;102455.89;;;1.70;100.00
32873;BME280;19224;52.462;16.898;2023-01-25T01:37:12;102442.95;;;1.66;100.00
32873;BME280;19224;52.462;16.898;2023-01-25T01:39:43;102448.66;;;1.64;100.00
32873;BME280;19224;52.462;16.898;2023-01-25T01:42:13;102445.61;;;1.66;100.00
32873;BME280;19224;52.462;16.898;2023-01-25T01:44:50;102453.23;;;1.70;100.00
32873;BME280;19224;52.462;16.898;2023-01-25T01:47:24;102445.00;;;1.44;100.00
32873;BME280;19224;52.462;16.898;2023-01-25T01:50:18;102443.78;;;1.47;100.00
32873;BME280;19224;52.462;16.898;2023-01-25T01:52:49;102438.78;;;1.59;100.00
32873;BME280;19224;52.462;16.898;2023-01-25T01:55:21;102434.76;;;1.74;100.00
32873;BME280;19224;52.462;16.898;2023-01-25T01:57:56;102437.36;;;1.73;100.00
32873;BME280;19224;52.462;16.898;2023-01-25T02:00:34;102430.26;;;1.72;100.00
32873;BME280;19224;52.462;16.898;2023-01-25T02:03:05;102431.59;;;1.72;100.00
32873;BME280;19224;52.462;16.898;2023-01-25T02:08:32;102425.50;;;1.59;100.00
32873;BME280;19224;52.462;16.898;2023-01-25T02:11:05;102427.44;;;1.66;100.00
32873;BME280;19224;52.462;16.898;2023-01-25T02:13:37;102422.42;;;1.78;100.00
32873;BME280;19224;52.462;16.898;2023-01-25T02:16:13;102426.17;;;1.86;100.00
32873;BME280;19224;52.462;16.898;2023-01-25T02:18:43;102421.72;;;1.85;100.00
32873;BME280;19224;52.462;16.898;2023-01-25T02:21:14;102415.08;;;1.85;100.00
32873;BME280;19224;52.462;16.898;2023-01-25T02:23:56;102409.30;;;1.84;100.00
32873;BME280;19224;52.462;16.898;2023-01-25T02:26:26;102406.71;;;1.87;100.00
32873;BME280;19224;52.462;16.898;2023-01-25T02:29:03;102408.78;;;1.80;100.00
32873;BME280;19224;52.462;16.898;2023-01-25T02:31:35;102407.40;;;1.78;100.00
32873;BME280;19224;52.462;16.898;2023-01-25T02:34:06;102406.77;;;1.71;100.00
32873;BME280;19224;52.462;16.898;2023-01-25T02:36:36;102408.21;;;1.76;100.00
32873;BME280;19224;52.462;16.898;2023-01-25T02:39:15;102410.34;;;1.72;100.00
32873;BME280;19224;52.462;16.898;2023-01-25T02:41:47;102409.52;;;1.74;100.00
32873;BME280;19224;52.462;16.898;2023-01-25T02:44:26;102403.63;;;1.69;100.00
32873;BME280;19224;52.462;16.898;2023-01-25T02:46:58;102406.41;;;1.56;100.00
32873;BME280;19224;52.462;16.898;2023-01-25T02:49:29;102396.77;;;1.60;100.00
32873;BME280;19224;52.462;16.898;2023-01-25T02:51:59;102390.25;;;1.66;100.00
32873;BME280;19224;52.462;16.898;2023-01-25T02:54:30;102386.14;;;1.60;100.00
32873;BME280;19224;52.462;16.898;2023-01-25T02:57:01;102382.05;;;1.74;100.00
32873;BME280;19224;52.462;16.898;2023-01-25T02:59:31;102375.17;;;1.82;100.00
32873;BME280;19224;52.462;16.898;2023-01-25T03:02:02;102378.53;;;1.75;100.00
32873;BME280;19224;52.462;16.898;2023-01-25T03:04:32;102376.91;;;1.80;100.00
32873;BME280;19224;52.462;16.898;2023-01-25T03:07:02;102375.64;;;1.83;100.00
32873;BME280;19224;52.462;16.898;2023-01-25T03:09:33;102369.69;;;1.74;100.00
32873;BME280;19224;52.462;16.898;2023-01-25T03:12:05;102364.55;;;1.82;100.00
32873;BME280;19224;52.462;16.898;2023-01-25T03:14:35;102361.84;;;1.80;100.00
32873;BME280;19224;52.462;16.898;2023-01-25T03:17:06;102351.52;;;1.74;100.00
32873;BME280;19224;52.462;16.898;2023-01-25T03:19:36;102356.71;;;1.69;100.00
32873;BME280;19224;52.462;16.898;2023-01-25T03:22:07;102354.50;;;1.69;100.00
32873;BME280;19224;52.462;16.898;2023-01-25T03:24:39;102346.02;;;1.66;100.00
32873;BME280;19224;52.462;16.898;2023-01-25T03:27:09;102347.41;;;1.69;100.00
32873;BME280;19224;52.462;16.898;2023-01-25T03:29:41;102347.87;;;1.69;100.00
32873;BME280;19224;52.462;16.898;2023-01-25T03:32:12;102341.69;;;1.70;100.00
32873;BME280;19224;52.462;16.898;2023-01-25T03:34:43;102339.50;;;1.71;100.00
32873;BME280;19224;52.462;16.898;2023-01-25T03:37:13;102338.39;;;1.80;100.00
32873;BME280;19224;52.462;16.898;2023-01-25T03:39:44;102331.13;;;1.73;100.00
32873;BME280;19224;52.462;16.898;2023-01-25T03:42:14;102326.06;;;1.65;100.00
32873;BME280;19224;52.462;16.898;2023-01-25T03:44:45;102334.42;;;1.63;100.00
32873;BME280;19224;52.462;16.898;2023-01-25T03:47:16;102330.20;;;1.52;100.00
32873;BME280;19224;52.462;16.898;2023-01-25T03:49:47;102322.13;;;1.48;100.00
32873;BME280;19224;52.462;16.898;2023-01-25T03:52:17;102317.34;;;1.52;100.00
32873;BME280;19224;52.462;16.898;2023-01-25T03:54:48;102314.17;;;1.49;100.00
32873;BME280;19224;52.462;16.898;2023-01-25T03:57:18;102309.94;;;1.56;100.00
32873;BME280;19224;52.462;16.898;2023-01-25T03:59:49;102303.83;;;1.60;100.00
32873;BME280;19224;52.462;16.898;2023-01-25T04:02:19;102305.96;;;1.56;100.00
32873;BME280;19224;52.462;16.898;2023-01-25T04:04:50;102296.84;;;1.63;100.00
32873;BME280;19224;52.462;16.898;2023-01-25T04:07:21;102292.11;;;1.50;100.00
32873;BME280;19224;52.462;16.898;2023-01-25T04:09:51;102294.03;;;1.39;100.00
32873;BME280;19224;52.462;16.898;2023-01-25T04:12:22;102289.58;;;1.38;100.00
32873;BME280;19224;52.462;16.898;2023-01-25T04:14:53;102286.06;;;1.39;100.00
32873;BME280;19224;52.462;16.898;2023-01-25T04:17:24;102292.70;;;1.39;100.00
32873;BME280;19224;52.462;16.898;2023-01-25T04:19:54;102290.68;;;1.29;100.00
32873;BME280;19224;52.462;16.898;2023-01-25T04:22:25;102292.80;;;1.25;100.00
32873;BME280;19224;52.462;16.898;2023-01-25T04:24:55;102285.83;;;1.28;100.00
32873;BME280;19224;52.462;16.898;2023-01-25T04:27:26;102282.83;;;1.33;100.00
32873;BME280;19224;52.462;16.898;2023-01-25T04:29:56;102273.83;;;1.45;100.00
32873;BME280;19224;52.462;16.898;2023-01-25T04:32:27;102267.77;;;1.51;100.00
32873;BME280;19224;52.462;16.898;2023-01-25T04:34:57;102269.66;;;1.56;100.00
32873;BME280;19224;52.462;16.898;2023-01-25T04:37:28;102265.52;;;1.30;100.00
32873;BME280;19224;52.462;16.898;2023-01-25T04:39:59;102266.50;;;1.34;100.00
32873;BME280;19224;52.462;16.898;2023-01-25T04:42:30;102263.74;;;1.31;100.00
32873;BME280;19224;52.462;16.898;2023-01-25T04:45:00;102263.34;;;1.14;100.00
32873;BME280;19224;52.462;16.898;2023-01-25T04:47:31;102263.92;;;1.38;100.00
32873;BME280;19224;52.462;16.898;2023-01-25T04:50:01;102258.13;;;1.36;100.00
32873;BME280;19224;52.462;16.898;2023-01-25T04:52:32;102251.56;;;1.39;100.00
32873;BME280;19224;52.462;16.898;2023-01-25T04:55:03;102258.35;;;1.45;100.00
32873;BME280;19224;52.462;16.898;2023-01-25T04:57:34;102250.23;;;1.39;100.00
32873;BME280;19224;52.462;16.898;2023-01-25T05:00:06;102249.42;;;1.43;100.00
32873;BME280;19224;52.462;16.898;2023-01-25T05:02:37;102254.60;;;1.55;100.00
32873;BME280;19224;52.462;16.898;2023-01-25T05:05:09;102250.72;;;1.60;100.00
32873;BME280;19224;52.462;16.898;2023-01-25T05:07:40;102255.02;;;1.55;100.00
32873;BME280;19224;52.462;16.898;2023-01-25T05:10:11;102252.86;;;1.56;100.00
32873;BME280;19224;52.462;16.898;2023-01-25T05:12:41;102250.91;;;1.49;100.00
32873;BME280;19224;52.462;16.898;2023-01-25T05:15:12;102243.87;;;1.51;100.00
32873;BME280;19224;52.462;16.898;2023-01-25T05:17:43;102239.95;;;1.54;100.00
32873;BME280;19224;52.462;16.898;2023-01-25T05:20:15;102241.79;;;1.56;100.00
32873;BME280;19224;52.462;16.898;2023-01-25T05:22:45;102235.77;;;1.63;100.00
32873;BME280;19224;52.462;16.898;2023-01-25T05:25:16;102237.80;;;1.56;100.00
32873;BME280;19224;52.462;16.898;2023-01-25T05:27:48;102234.23;;;1.54;100.00
32873;BME280;19224;52.462;16.898;2023-01-25T05:30:19;102235.03;;;1.50;100.00
32873;BME280;19224;52.462;16.898;2023-01-25T05:32:50;102236.98;;;1.59;100.00
32873;BME280;19224;52.462;16.898;2023-01-25T05:35:20;102240.10;;;1.60;100.00
32873;BME280;19224;52.462;16.898;2023-01-25T05:38:01;102239.38;;;1.47;100.00
32873;BME280;19224;52.462;16.898;2023-01-25T05:40:28;102232.79;;;1.50;100.00
32873;BME280;19224;52.462;16.898;2023-01-25T05:42:59;102237.83;;;1.38;100.00
32873;BME280;19224;52.462;16.898;2023-01-25T05:45:30;102229.88;;;1.21;100.00
32873;BME280;19224;52.462;16.898;2023-01-25T05:48:00;102225.60;;;1.26;100.00
32873;BME280;19224;52.462;16.898;2023-01-25T05:50:31;102228.47;;;1.35;100.00
32873;BME280;19224;52.462;16.898;2023-01-25T05:53:01;102230.63;;;1.14;100.00
32873;BME280;19224;52.462;16.898;2023-01-25T05:55:34;102230.46;;;1.26;100.00
32873;BME280;19224;52.462;16.898;2023-01-25T05:58:05;102233.67;;;1.30;100.00
32873;BME280;19224;52.462;16.898;2023-01-25T06:00:35;102237.42;;;1.40;100.00
32873;BME280;19224;52.462;16.898;2023-01-25T06:03:05;102230.27;;;1.36;100.00
32873;BME280;19224;52.462;16.898;2023-01-25T06:05:36;102228.89;;;1.34;100.00
32873;BME280;19224;52.462;16.898;2023-01-25T06:08:07;102231.31;;;1.44;100.00
32873;BME280;19224;52.462;16.898;2023-01-25T06:10:37;102234.71;;;1.37;100.00
32873;BME280;19224;52.462;16.898;2023-01-25T06:13:08;102227.33;;;1.44;100.00
32873;BME280;19224;52.462;16.898;2023-01-25T06:15:38;102228.14;;;1.21;100.00
32873;BME280;19224;52.462;16.898;2023-01-25T06:18:09;102230.92;;;1.27;100.00
32873;BME280;19224;52.462;16.898;2023-01-25T06:20:39;102226.53;;;1.28;100.00
32873;BME280;19224;52.462;16.898;2023-01-25T06:23:10;102223.52;;;1.31;100.00
32873;BME280;19224;52.462;16.898;2023-01-25T06:25:41;102225.44;;;1.20;100.00
32873;BME280;19224;52.462;16.898;2023-01-25T06:28:11;102223.94;;;1.12;100.00
32873;BME280;19224;52.462;16.898;2023-01-25T06:30:42;102229.70;;;1.32;100.00
32873;BME280;19224;52.462;16.898;2023-01-25T06:33:13;102227.09;;;1.33;100.00
32873;BME280;19224;52.462;16.898;2023-01-25T06:35:44;102223.75;;;1.42;100.00
32873;BME280;19224;52.462;16.898;2023-01-25T06:38:14;102218.08;;;1.45;100.00
32873;BME280;19224;52.462;16.898;2023-01-25T06:40:45;102221.08;;;1.40;100.00
32873;BME280;19224;52.462;16.898;2023-01-25T06:43:15;102225.04;;;1.59;100.00
32873;BME280;19224;52.462;16.898;2023-01-25T06:45:45;102226.78;;;1.58;100.00
32873;BME280;19224;52.462;16.898;2023-01-25T06:48:16;102223.96;;;1.51;100.00
32873;BME280;19224;52.462;16.898;2023-01-25T06:50:53;102220.19;;;1.60;100.00
32873;BME280;19224;52.462;16.898;2023-01-25T06:53:26;102226.22;;;1.53;100.00
32873;BME280;19224;52.462;16.898;2023-01-25T06:55:59;102224.11;;;1.57;100.00
32873;BME280;19224;52.462;16.898;2023-01-25T06:58:31;102230.48;;;1.45;100.00
32873;BME280;19224;52.462;16.898;2023-01-25T07:01:11;102225.75;;;1.52;100.00
32873;BME280;19224;52.462;16.898;2023-01-25T07:03:36;102224.21;;;1.43;100.00
32873;BME280;19224;52.462;16.898;2023-01-25T07:06:10;102215.53;;;1.50;100.00
32873;BME280;19224;52.462;16.898;2023-01-25T07:08:40;102206.45;;;1.59;100.00
32873;BME280;19224;52.462;16.898;2023-01-25T07:11:13;102210.64;;;1.49;100.00
32873;BME280;19224;52.462;16.898;2023-01-25T07:13:46;102209.00;;;1.54;100.00
32873;BME280;19224;52.462;16.898;2023-01-25T07:16:19;102207.27;;;1.56;100.00
32873;BME280;19224;52.462;16.898;2023-01-25T07:18:50;102211.85;;;1.43;100.00
32873;BME280;19224;52.462;16.898;2023-01-25T07:21:23;102209.55;;;1.40;100.00
32873;BME280;19224;52.462;16.898;2023-01-25T07:23:53;102206.33;;;1.34;100.00
32873;BME280;19224;52.462;16.898;2023-01-25T07:26:26;102205.22;;;1.43;100.00
32873;BME280;19224;52.462;16.898;2023-01-25T07:28:58;102202.16;;;1.45;100.00
32873;BME280;19224;52.462;16.898;2023-01-25T07:31:28;102200.02;;;1.49;100.00
32873;BME280;19224;52.462;16.898;2023-01-25T07:33:59;102202.11;;;1.44;100.00
32873;BME280;19224;52.462;16.898;2023-01-25T07:36:29;102201.65;;;1.43;100.00
32873;BME280;19224;52.462;16.898;2023-01-25T07:39:00;102199.20;;;1.52;100.00
32873;BME280;19224;52.462;16.898;2023-01-25T07:41:30;102193.58;;;1.57;100.00
32873;BME280;19224;52.462;16.898;2023-01-25T07:44:01;102193.44;;;1.51;100.00
32873;BME280;19224;52.462;16.898;2023-01-25T07:46:32;102182.59;;;1.40;100.00
32873;BME280;19224;52.462;16.898;2023-01-25T07:49:03;102183.84;;;1.19;100.00
32873;BME280;19224;52.462;16.898;2023-01-25T07:51:33;102187.70;;;1.33;100.00
32873;BME280;19224;52.462;16.898;2023-01-25T07:54:05;102184.39;;;1.43;100.00
32873;BME280;19224;52.462;16.898;2023-01-25T07:56:36;102180.16;;;1.51;100.00
32873;BME280;19224;52.462;16.898;2023-01-25T07:59:09;102172.50;;;1.64;100.00
32873;BME280;19224;52.462;16.898;2023-01-25T08:01:40;102161.05;;;1.67;100.00
32873;BME280;19224;52.462;16.898;2023-01-25T08:04:10;102155.70;;;1.65;100.00
32873;BME280;19224;52.462;16.898;2023-01-25T08:06:41;102156.76;;;1.73;100.00
32873;BME280;19224;52.462;16.898;2023-01-25T08:09:16;102157.69;;;1.77;100.00
32873;BME280;19224;52.462;16.898;2023-01-25T08:11:48;102151.05;;;1.77;100.00
32873;BME280;19224;52.462;16.898;2023-01-25T08:14:21;102151.36;;;1.70;100.00
32873;BME280;19224;52.462;16.898;2023-01-25T08:16:53;102162.19;;;1.59;100.00
32873;BME280;19224;52.462;16.898;2023-01-25T08:19:23;102160.91;;;1.41;100.00
32873;BME280;19224;52.462;16.898;2023-01-25T08:21:54;102168.52;;;1.44;100.00
32873;BME280;19224;52.462;16.898;2023-01-25T08:24:25;102154.42;;;1.47;100.00
32873;BME280;19224;52.462;16.898;2023-01-25T08:26:55;102150.86;;;1.46;100.00
32873;BME280;19224;52.462;16.898;2023-01-25T08:29:26;102148.66;;;1.46;100.00
32873;BME280;19224;52.462;16.898;2023-01-25T08:31:57;102144.58;;;1.43;100.00
32873;BME280;19224;52.462;16.898;2023-01-25T08:34:28;102144.02;;;1.57;100.00
32873;BME280;19224;52.462;16.898;2023-01-25T08:37:00;102133.94;;;1.61;100.00
32873;BME280;19224;52.462;16.898;2023-01-25T08:39:31;102138.99;;;1.71;100.00
32873;BME280;19224;52.462;16.898;2023-01-25T08:42:02;102133.62;;;1.68;100.00
32873;BME280;19224;52.462;16.898;2023-01-25T08:44:32;102131.98;;;1.74;100.00
32873;BME280;19224;52.462;16.898;2023-01-25T08:47:03;102132.77;;;1.69;100.00
32873;BME280;19224;52.462;16.898;2023-01-25T08:49:34;102127.69;;;1.81;100.00
32873;BME280;19224;52.462;16.898;2023-01-25T08:52:05;102130.91;;;1.88;100.00
32873;BME280;19224;52.462;16.898;2023-01-25T08:54:35;102119.64;;;1.78;100.00
32873;BME280;19224;52.462;16.898;2023-01-25T08:57:06;102128.61;;;1.83;100.00
32873;BME280;19224;52.462;16.898;2023-01-25T08:59:36;102112.22;;;1.82;100.00
32873;BME280;19224;52.462;16.898;2023-01-25T09:02:09;102111.80;;;1.84;100.00
32873;BME280;19224;52.462;16.898;2023-01-25T09:04:40;102109.10;;;1.81;100.00
32873;BME280;19224;52.462;16.898;2023-01-25T09:07:11;102103.34;;;1.81;100.00
32873;BME280;19224;52.462;16.898;2023-01-25T09:09:41;102099.21;;;1.74;100.00
32873;BME280;19224;52.462;16.898;2023-01-25T09:12:12;102105.22;;;1.87;100.00
32873;BME280;19224;52.462;16.898;2023-01-25T09:14:42;102103.97;;;1.90;100.00
32873;BME280;19224;52.462;16.898;2023-01-25T09:17:13;102111.45;;;1.89;100.00
32873;BME280;19224;52.462;16.898;2023-01-25T09:19:43;102108.78;;;1.87;100.00
32873;BME280;19224;52.462;16.898;2023-01-25T09:22:14;102104.06;;;1.96;100.00
32873;BME280;19224;52.462;16.898;2023-01-25T09:24:44;102108.46;;;1.94;100.00
32873;BME280;19224;52.462;16.898;2023-01-25T09:27:16;102102.33;;;1.98;100.00
32873;BME280;19224;52.462;16.898;2023-01-25T09:29:47;102098.88;;;2.02;100.00
32873;BME280;19224;52.462;16.898;2023-01-25T09:32:17;102102.69;;;1.93;100.00
32873;BME280;19224;52.462;16.898;2023-01-25T09:34:48;102091.02;;;1.85;100.00
32873;BME280;19224;52.462;16.898;2023-01-25T09:37:19;102097.25;;;1.87;100.00
32873;BME280;19224;52.462;16.898;2023-01-25T09:39:49;102099.99;;;1.91;100.00
32873;BME280;19224;52.462;16.898;2023-01-25T09:45:34;102094.50;;;1.82;100.00
32873;BME280;19224;52.462;16.898;2023-01-25T09:48:32;102092.20;;;1.77;100.00
32873;BME280;19224;52.462;16.898;2023-01-25T09:51:14;102086.98;;;1.82;100.00
32873;BME280;19224;52.462;16.898;2023-01-25T09:53:50;102075.67;;;1.92;100.00
32873;BME280;19224;52.462;16.898;2023-01-25T09:56:31;102077.95;;;1.97;100.00
32873;BME280;19224;52.462;16.898;2023-01-25T09:59:11;102075.76;;;1.98;100.00
32873;BME280;19224;52.462;16.898;2023-01-25T10:04:40;102067.41;;;2.01;100.00
32873;BME280;19224;52.462;16.898;2023-01-25T10:07:31;102069.98;;;1.95;100.00
32873;BME280;19224;52.462;16.898;2023-01-25T10:10:40;102061.97;;;1.94;100.00
32873;BME280;19224;52.462;16.898;2023-01-25T10:12:54;102056.08;;;2.11;100.00
32873;BME280;19224;52.462;16.898;2023-01-25T10:15:29;102053.59;;;2.22;100.00
32873;BME280;19224;52.462;16.898;2023-01-25T10:21:05;102053.59;;;2.20;100.00
32873;BME280;19224;52.462;16.898;2023-01-25T10:26:44;102050.39;;;1.90;100.00
32873;BME280;19224;52.462;16.898;2023-01-25T10:29:19;102050.84;;;1.90;100.00
32873;BME280;19224;52.462;16.898;2023-01-25T10:31:54;102043.47;;;2.00;100.00
32873;BME280;19224;52.462;16.898;2023-01-25T10:34:39;102041.68;;;1.99;100.00
32873;BME280;19224;52.462;16.898;2023-01-25T10:37:26;102038.39;;;2.12;100.00
32873;BME280;19224;52.462;16.898;2023-01-25T10:40:02;102040.47;;;2.05;100.00
32873;BME280;19224;52.462;16.898;2023-01-25T10:42:50;102033.53;;;2.13;100.00
32873;BME280;19224;52.462;16.898;2023-01-25T10:45:19;102031.00;;;2.22;100.00
32873;BME280;19224;52.462;16.898;2023-01-25T10:48:02;102023.19;;;2.30;100.00
32873;BME280;19224;52.462;16.898;2023-01-25T10:50:44;102019.73;;;2.34;100.00
32873;BME280;19224;52.462;16.898;2023-01-25T10:58:46;102021.40;;;2.29;100.00
32873;BME280;19224;52.462;16.898;2023-01-25T11:01:35;102013.88;;;2.30;100.00
32873;BME280;19224;52.462;16.898;2023-01-25T11:04:28;102010.31;;;2.28;100.00
32873;BME280;19224;52.462;16.898;2023-01-25T11:06:52;101994.21;;;2.20;100.00
32873;BME280;19224;52.462;16.898;2023-01-25T11:09:36;101991.94;;;2.15;100.00
32873;BME280;19224;52.462;16.898;2023-01-25T11:12:19;101985.82;;;2.22;100.00
32873;BME280;19224;52.462;16.898;2023-01-25T11:14:50;101987.22;;;2.25;100.00
32873;BME280;19224;52.462;16.898;2023-01-25T11:17:27;101978.72;;;2.19;100.00
32873;BME280;19224;52.462;16.898;2023-01-25T11:20:18;101963.72;;;2.23;100.00
32873;BME280;19224;52.462;16.898;2023-01-25T11:22:55;101967.67;;;2.21;100.00
32873;BME280;19224;52.462;16.898;2023-01-25T11:25:34;101966.48;;;2.30;100.00
32873;BME280;19224;52.462;16.898;2023-01-25T11:28:23;101963.30;;;2.25;100.00
32873;BME280;19224;52.462;16.898;2023-01-25T11:30:53;101958.14;;;2.08;100.00
32873;BME280;19224;52.462;16.898;2023-01-25T11:33:26;101948.54;;;2.16;100.00
32873;BME280;19224;52.462;16.898;2023-01-25T11:45:15;101941.66;;;2.29;100.00
32873;BME280;19224;52.462;16.898;2023-01-25T11:51:00;101935.47;;;2.30;100.00
32873;BME280;19224;52.462;16.898;2023-01-25T11:57:03;101916.23;;;2.18;100.00
32873;BME280;19224;52.462;16.898;2023-01-25T12:00:07;101922.88;;;2.18;100.00
32873;BME280;19224;52.462;16.898;2023-01-25T12:20:52;101873.05;;;2.02;100.00
32873;BME280;19224;52.462;16.898;2023-01-25T12:32:03;101845.02;;;1.94;100.00
32873;BME280;19224;52.462;16.898;2023-01-25T12:34:45;101835.11;;;2.13;100.00
32873;BME280;19224;52.462;16.898;2023-01-25T12:37:24;101835.21;;;2.21;100.00
32873;BME280;19224;52.462;16.898;2023-01-25T12:40:10;101828.18;;;2.23;100.00
32873;BME280;19224;52.462;16.898;2023-01-25T12:42:53;101824.55;;;2.18;100.00
32873;BME280;19224;52.462;16.898;2023-01-25T12:45:26;101818.23;;;2.10;100.00
32873;BME280;19224;52.462;16.898;2023-01-25T12:48:17;101815.41;;;1.98;100.00
32873;BME280;19224;52.462;16.898;2023-01-25T12:50:56;101811.56;;;2.07;100.00
32873;BME280;19224;52.462;16.898;2023-01-25T12:53:41;101808.06;;;2.09;100.00
32873;BME280;19224;52.462;16.898;2023-01-25T13:02:06;101792.30;;;2.23;100.00
32873;BME280;19224;52.462;16.898;2023-01-25T13:10:28;101775.81;;;2.16;100.00
32873;BME280;19224;52.462;16.898;2023-01-25T13:13:13;101781.36;;;2.33;100.00
32873;BME280;19224;52.462;16.898;2023-01-25T13:15:41;101777.32;;;2.29;100.00
32873;BME280;19224;52.462;16.898;2023-01-25T13:18:34;101782.03;;;2.18;100.00
32873;BME280;19224;52.462;16.898;2023-01-25T13:21:08;101776.56;;;2.06;100.00
32873;BME280;19224;52.462;16.898;2023-01-25T13:23:42;101769.65;;;2.20;100.00
32873;BME280;19224;52.462;16.898;2023-01-25T13:28:59;101759.39;;;2.12;100.00
32873;BME280;19224;52.462;16.898;2023-01-25T13:37:00;101750.23;;;2.24;100.00
32873;BME280;19224;52.462;16.898;2023-01-25T13:44:48;101736.18;;;2.33;100.00
32873;BME280;19224;52.462;16.898;2023-01-25T13:47:25;101731.79;;;2.38;100.00
32873;BME280;19224;52.462;16.898;2023-01-25T13:50:24;101721.58;;;2.38;100.00
32873;BME280;19224;52.462;16.898;2023-01-25T13:53:16;101718.05;;;2.37;100.00
32873;BME280;19224;52.462;16.898;2023-01-25T13:55:53;101716.80;;;2.45;100.00
32873;BME280;19224;52.462;16.898;2023-01-25T13:58:35;101715.05;;;2.45;100.00
32873;BME280;19224;52.462;16.898;2023-01-25T14:01:15;101715.81;;;2.35;100.00
32873;BME280;19224;52.462;16.898;2023-01-25T14:03:56;101707.84;;;2.35;100.00
32873;BME280;19224;52.462;16.898;2023-01-25T14:06:37;101706.52;;;2.35;100.00
32873;BME280;19224;52.462;16.898;2023-01-25T14:09:19;101711.93;;;2.46;100.00
32873;BME280;19224;52.462;16.898;2023-01-25T14:11:59;101705.81;;;2.53;100.00
32873;BME280;19224;52.462;16.898;2023-01-25T14:14:35;101707.44;;;2.40;100.00
32873;BME280;19224;52.462;16.898;2023-01-25T14:17:21;101709.67;;;2.42;100.00
32873;BME280;19224;52.462;16.898;2023-01-25T14:19:56;101705.73;;;2.45;100.00
32873;BME280;19224;52.462;16.898;2023-01-25T14:22:31;101695.88;;;2.37;100.00
32873;BME280;19224;52.462;16.898;2023-01-25T14:25:12;101705.51;;;2.25;100.00
32873;BME280;19224;52.462;16.898;2023-01-25T14:27:47;101681.42;;;2.11;100.00
32873;BME280;19224;52.462;16.898;2023-01-25T14:30:26;101678.42;;;2.21;100.00
32873;BME280;19224;52.462;16.898;2023-01-25T14:33:15;101672.08;;;2.07;100.00
32873;BME280;19224;52.462;16.898;2023-01-25T14:35:41;101672.50;;;2.05;100.00
32873;BME280;19224;52.462;16.898;2023-01-25T14:41:01;101668.22;;;2.17;100.00
32873;BME280;19224;52.462;16.898;2023-01-25T14:43:31;101665.59;;;2.20;100.00
32873;BME280;19224;52.462;16.898;2023-01-25T14:48:51;101663.45;;;2.28;100.00